KTIX/TIX METAR and TAF weather

Enter ICAO airport designator
Station Type Date Time Source
KTIX METAR 2022/11/30 17:47 UTC NOAA

KTIX 301747Z 23005KT 7SM SCT030 29/20 A3009


Station Type Date Time Source
KTIX Decoded METAR 2022/11/30 17:47 UTC NOAA

Titusville, FL, United States (KTIX) 28-31N 080-48W
Nov 30, 2022 - 12:47 PM EST / 2022.11.30 1747 UTC
Wind: from the SW (230 degrees) at 6 MPH (5 KT):0
Visibility: 7 mile(s):0
Sky conditions: partly cloudy
Temperature: 84 F (29 C)
Dew Point: 68 F (20 C)
Relative Humidity: 58%
Pressure (altimeter): 30.09 in. Hg (1018 hPa)
ob: KTIX 301747Z 23005KT 7SM SCT030 29/20 A3009
cycle: 18

Station Type Date Time Source
KTIX TAF 2022/11/30 18:42 UTC NOAA

TAF KTIX 301740Z 3018/0118 23008KT P6SM SCT035 BKN250
FM302000 08008KT P6SM SCT050 SCT250
FM010000 VRB03KT P6SM FEW030 SCT050 SCT250
FM010600 32004KT P6SM BKN050
FM010900 36007KT P6SM OVC015
FM011500 02014G21KT P6SM BKN025

Example: see airport list